Time;durP1;ratioP1;P1;durP2;ratioP2;P2;SDS_P1;SDS_P2;PMS_P1;PMS_P2;Temp;Humidity;BMP_temperature;BMP_pressure;BME280_temperature;BME280_humidity;BME280_pressure;Samples;Min_cycle;Max_cycle;Signal;HPM_P1;HPM_P2
2023/09/06 00:01:54;;;;;;;6.75;4.90;;;14.00;99.90;;;;;;5086256;28;20071;-65
2023/09/06 00:04:26;;;;;;;7.10;4.93;;;14.00;99.90;;;;;;5076552;28;20032;-66
2023/09/06 00:06:59;;;;;;;6.80;5.28;;;14.00;99.90;;;;;;5083711;28;20047;-66
2023/09/06 00:09:26;;;;;;;8.73;5.25;;;14.00;99.90;;;;;;5084279;28;20036;-65
2023/09/06 00:11:58;;;;;;;7.15;4.97;;;14.00;99.90;;;;;;5083210;28;20044;-66
2023/09/06 00:14:30;;;;;;;5.22;4.43;;;14.00;99.90;;;;;;5085517;28;20071;-66
2023/09/06 00:16:57;;;;;;;5.07;4.57;;;13.90;99.90;;;;;;5085323;28;20044;-66
2023/09/06 00:19:29;;;;;;;6.35;4.70;;;13.90;99.90;;;;;;5086417;28;20505;-66
2023/09/06 00:22:01;;;;;;;6.68;5.03;;;13.90;99.90;;;;;;5086445;28;20124;-66
2023/09/06 00:24:33;;;;;;;5.07;4.15;;;13.90;99.90;;;;;;5083084;28;20052;-66
2023/09/06 00:27:03;;;;;;;5.75;5.07;;;13.80;99.90;;;;;;5086671;28;20032;-65
2023/09/06 00:29:35;;;;;;;6.82;4.50;;;13.80;99.90;;;;;;5071313;28;20044;-66
2023/09/06 00:32:07;;;;;;;6.25;4.60;;;13.80;99.90;;;;;;5084513;28;20040;-66
2023/09/06 00:34:40;;;;;;;11.13;5.72;;;13.80;99.90;;;;;;5077885;28;20058;-66
2023/09/06 00:37:11;;;;;;;7.15;4.75;;;13.80;99.90;;;;;;5067935;28;20068;-67
2023/09/06 00:39:45;;;;;;;5.78;4.50;;;13.70;99.90;;;;;;5084824;28;20125;-65
2023/09/06 00:42:16;;;;;;;5.88;4.75;;;13.70;99.90;;;;;;5088707;28;20033;-66
2023/09/06 00:44:48;;;;;;;6.88;4.93;;;13.70;99.90;;;;;;5083864;28;20056;-66
2023/09/06 00:47:15;;;;;;;7.72;4.50;;;13.70;99.90;;;;;;5088258;28;20032;-66
2023/09/06 00:49:47;;;;;;;5.30;4.20;;;13.60;99.90;;;;;;5087959;28;20059;-66
2023/09/06 00:52:20;;;;;;;5.45;4.57;;;13.50;99.90;;;;;;5074302;28;20072;-65
2023/09/06 00:54:52;;;;;;;5.18;4.47;;;13.50;99.90;;;;;;5104150;28;20052;-66
2023/09/06 00:57:19;;;;;;;5.28;4.40;;;13.50;99.90;;;;;;5086181;28;20040;-67
2023/09/06 00:59:53;;;;;;;5.90;4.70;;;13.50;99.90;;;;;;5089146;28;20068;-66
2023/09/06 01:02:28;;;;;;;5.35;4.82;;;13.50;99.90;;;;;;5070076;28;20072;-65
2023/09/06 01:05:00;;;;;;;7.80;4.88;;;13.50;99.90;;;;;;5082770;28;20054;-66
2023/09/06 01:07:35;;;;;;;6.43;4.55;;;13.50;99.90;;;;;;5088001;28;20462;-66
2023/09/06 01:10:08;;;;;;;7.10;4.15;;;13.40;99.90;;;;;;5082658;28;20040;-66
2023/09/06 01:12:40;;;;;;;6.40;4.75;;;13.40;99.90;;;;;;5071555;28;20040;-66
2023/09/06 01:15:08;;;;;;;6.53;4.35;;;13.30;99.90;;;;;;5084380;28;20043;-66
2023/09/06 01:17:44;;;;;;;5.50;4.87;;;13.30;99.90;;;;;;5090376;28;20069;-65
2023/09/06 01:20:42;;;;;;;7.45;5.07;;;13.20;99.90;;;;;;5084146;28;20048;-66
2023/09/06 01:23:33;;;;;;;5.28;4.18;;;13.20;99.90;;;;;;5086652;28;20040;-66
2023/09/06 01:26:06;;;;;;;6.45;4.90;;;13.20;99.90;;;;;;5086843;28;20051;-66
2023/09/06 01:28:33;;;;;;;7.80;4.65;;;13.10;99.90;;;;;;5084210;28;20411;-66
2023/09/06 01:31:00;;;;;;;5.93;4.68;;;13.10;99.90;;;;;;5089587;28;20036;-67
2023/09/06 01:33:28;;;;;;;5.07;4.55;;;13.10;99.90;;;;;;5088108;28;20075;-66
2023/09/06 01:36:01;;;;;;;6.55;4.78;;;13.10;99.90;;;;;;5102209;28;20036;-66
2023/09/06 01:38:33;;;;;;;6.65;4.72;;;13.00;99.90;;;;;;5077715;28;20570;-65
2023/09/06 01:41:06;;;;;;;6.68;4.50;;;13.00;99.90;;;;;;5089635;28;20055;-66
2023/09/06 01:43:38;;;;;;;7.18;5.25;;;12.90;99.90;;;;;;5072499;28;20051;-66
2023/09/06 01:46:04;;;;;;;6.80;5.10;;;12.80;99.90;;;;;;5088054;28;20063;-66
2023/09/06 01:48:39;;;;;;;6.35;5.57;;;12.80;99.90;;;;;;5083376;28;20130;-65
2023/09/06 01:51:11;;;;;;;6.35;5.13;;;12.80;99.90;;;;;;5087993;28;20044;-66
2023/09/06 01:53:43;;;;;;;5.25;4.55;;;12.80;99.90;;;;;;5070834;28;20524;-66
2023/09/06 01:56:14;;;;;;;8.27;5.45;;;12.80;99.90;;;;;;5084971;28;20048;-66
2023/09/06 01:58:46;;;;;;;6.65;4.80;;;12.90;99.90;;;;;;5072970;28;20054;-66
2023/09/06 02:01:18;;;;;;;6.93;5.20;;;12.90;99.90;;;;;;5086462;28;20121;-66
2023/09/06 02:03:50;;;;;;;8.05;5.43;;;12.90;99.90;;;;;;5099655;28;20046;-66
2023/09/06 02:06:22;;;;;;;5.95;4.80;;;12.90;99.90;;;;;;5087117;28;20040;-66
2023/09/06 02:08:54;;;;;;;8.43;5.35;;;12.90;99.90;;;;;;5087854;28;20098;-65
2023/09/06 02:11:26;;;;;;;6.18;4.85;;;12.90;99.90;;;;;;5086579;28;20040;-66
2023/09/06 02:13:58;;;;;;;6.15;5.20;;;12.90;99.90;;;;;;5065973;28;20052;-65
2023/09/06 02:16:30;;;;;;;7.00;4.90;;;12.90;99.90;;;;;;5072750;28;20631;-66
2023/09/06 02:19:03;;;;;;;8.40;4.60;;;12.90;99.90;;;;;;5072682;28;20132;-66
2023/09/06 02:21:35;;;;;;;7.05;5.32;;;12.90;99.90;;;;;;5102213;28;20058;-66
2023/09/06 02:24:03;;;;;;;6.78;5.03;;;12.80;99.90;;;;;;5085078;28;20412;-66
2023/09/06 02:26:36;;;;;;;5.72;4.60;;;12.80;99.90;;;;;;5070343;28;20044;-66
2023/09/06 02:29:08;;;;;;;6.03;5.00;;;12.80;99.90;;;;;;5088626;28;20044;-66
2023/09/06 02:31:37;;;;;;;5.88;4.50;;;12.80;99.90;;;;;;5086710;28;20144;-66
2023/09/06 02:34:09;;;;;;;7.10;5.38;;;12.80;99.90;;;;;;5087819;28;20542;-65
2023/09/06 02:36:41;;;;;;;5.75;4.93;;;12.80;99.90;;;;;;5080685;28;20044;-66
2023/09/06 02:39:10;;;;;;;6.07;5.32;;;12.80;99.90;;;;;;5088607;28;20048;-66
2023/09/06 02:41:42;;;;;;;6.60;4.85;;;12.70;99.90;;;;;;5083741;28;20052;-66
2023/09/06 02:44:09;;;;;;;6.25;4.60;;;12.70;99.90;;;;;;5083008;28;20418;-66
2023/09/06 02:46:41;;;;;;;6.30;4.93;;;12.70;99.90;;;;;;5086353;28;20058;-66
2023/09/06 02:49:13;;;;;;;5.13;4.22;;;12.70;99.90;;;;;;5071316;28;20106;-66
2023/09/06 02:51:47;;;;;;;5.95;4.72;;;12.60;99.90;;;;;;5085779;28;20068;-66
2023/09/06 02:54:19;;;;;;;6.88;5.32;;;12.60;99.90;;;;;;5084487;28;20086;-66
2023/09/06 02:56:51;;;;;;;6.85;4.80;;;12.60;99.90;;;;;;5087064;28;20054;-66
2023/09/06 02:59:19;;;;;;;7.97;4.40;;;12.60;99.90;;;;;;5088103;28;20131;-66
2023/09/06 03:01:53;;;;;;;5.50;4.77;;;12.60;99.90;;;;;;5083264;28;20400;-66
2023/09/06 03:04:24;;;;;;;5.65;4.80;;;12.60;99.90;;;;;;5085408;28;20500;-66
2023/09/06 03:06:57;;;;;;;6.80;4.50;;;12.60;99.90;;;;;;5077924;28;20515;-66
2023/09/06 03:09:28;;;;;;;6.70;5.00;;;12.50;99.90;;;;;;5087953;28;20036;-66
2023/09/06 03:11:56;;;;;;;6.97;5.25;;;12.50;99.90;;;;;;5084169;28;20040;-65
2023/09/06 03:14:30;;;;;;;5.85;4.47;;;12.50;99.90;;;;;;5085791;28;20043;-66
2023/09/06 03:16:57;;;;;;;5.50;4.82;;;12.50;99.90;;;;;;5079844;28;20524;-65
2023/09/06 03:19:31;;;;;;;6.95;4.63;;;12.50;99.90;;;;;;5070750;28;20090;-67
2023/09/06 03:22:06;;;;;;;8.98;4.75;;;12.50;99.90;;;;;;5081728;28;20047;-66
2023/09/06 03:24:40;;;;;;;8.95;5.10;;;12.40;99.90;;;;;;5084083;28;20032;-65
2023/09/06 03:27:16;;;;;;;8.40;6.07;;;12.40;99.90;;;;;;5087899;28;20044;-66
2023/09/06 03:29:50;;;;;;;7.00;4.95;;;12.40;99.90;;;;;;5085031;28;20037;-66
2023/09/06 03:32:20;;;;;;;7.50;5.47;;;12.40;99.90;;;;;;5085806;28;20515;-65
2023/09/06 03:34:49;;;;;;;8.48;4.57;;;12.30;99.90;;;;;;5085568;28;20471;-68
2023/09/06 03:37:23;;;;;;;7.72;5.32;;;12.30;99.90;;;;;;5087680;28;20051;-66
2023/09/06 03:39:53;;;;;;;9.38;5.57;;;12.30;99.90;;;;;;5082839;28;20036;-66
2023/09/06 03:42:26;;;;;;;8.77;5.75;;;12.30;99.90;;;;;;5082410;28;20108;-66
2023/09/06 03:44:53;;;;;;;8.93;5.78;;;12.20;99.90;;;;;;5084849;28;20037;-66
2023/09/06 03:47:26;;;;;;;7.45;5.90;;;12.20;99.90;;;;;;5085347;28;20051;-66
2023/09/06 03:49:59;;;;;;;8.27;6.25;;;12.10;99.90;;;;;;5070548;28;20393;-66
2023/09/06 03:52:26;;;;;;;7.00;5.78;;;12.10;99.90;;;;;;5080091;28;20538;-66
2023/09/06 03:54:59;;;;;;;8.77;5.20;;;12.10;99.90;;;;;;5086271;28;20040;-66
2023/09/06 03:57:31;;;;;;;8.80;5.30;;;12.10;99.90;;;;;;5082596;28;20516;-66
2023/09/06 03:59:58;;;;;;;5.80;4.82;;;12.10;99.90;;;;;;5085779;28;20032;-66
2023/09/06 04:02:27;;;;;;;7.60;5.38;;;12.00;99.90;;;;;;5086056;28;20040;-66
2023/09/06 04:04:59;;;;;;;6.53;4.50;;;12.00;99.90;;;;;;5063632;28;20051;-65
2023/09/06 04:07:32;;;;;;;12.18;5.47;;;12.00;99.90;;;;;;5087982;28;20708;-65
2023/09/06 04:10:13;;;;;;;8.90;5.93;;;12.00;99.90;;;;;;5083350;28;20062;-66
2023/09/06 04:12:43;;;;;;;7.22;5.10;;;11.90;99.90;;;;;;5085363;28;20044;-66
2023/09/06 04:15:16;;;;;;;7.03;5.63;;;11.90;99.90;;;;;;5087695;28;20052;-66
2023/09/06 04:17:43;;;;;;;7.05;4.43;;;11.90;99.90;;;;;;5087042;28;20038;-66
2023/09/06 04:20:19;;;;;;;6.20;4.57;;;11.90;99.90;;;;;;5089608;28;20591;-68
2023/09/06 04:22:51;;;;;;;7.45;5.13;;;11.90;99.90;;;;;;5091083;28;20141;-66
2023/09/06 04:25:26;;;;;;;7.00;4.78;;;12.00;99.90;;;;;;5104950;28;20048;-66
2023/09/06 04:27:59;;;;;;;5.57;4.65;;;12.00;99.90;;;;;;5087612;28;20040;-66
2023/09/06 04:30:32;;;;;;;8.75;6.45;;;12.00;99.90;;;;;;5071333;28;20054;-66
2023/09/06 04:33:14;;;;;;;9.53;5.80;;;12.00;99.90;;;;;;5084859;28;20348;-66
2023/09/06 04:35:51;;;;;;;8.10;5.28;;;11.90;99.90;;;;;;5077990;28;20056;-66
2023/09/06 04:38:23;;;;;;;7.45;5.28;;;11.90;99.90;;;;;;5075524;28;20028;-66
2023/09/06 04:40:58;;;;;;;6.50;4.93;;;11.80;99.90;;;;;;5088538;28;20118;-66
2023/09/06 04:43:37;;;;;;;7.00;4.65;;;11.80;99.90;;;;;;5085261;28;20037;-66
2023/09/06 04:46:05;;;;;;;7.18;5.10;;;11.80;99.90;;;;;;5073502;28;20040;-66
2023/09/06 04:48:43;;;;;;;7.00;5.10;;;11.80;99.90;;;;;;5088806;28;20040;-65
2023/09/06 04:51:15;;;;;;;8.38;5.18;;;11.80;99.90;;;;;;5077386;28;20131;-66
2023/09/06 04:53:49;;;;;;;7.53;5.25;;;11.80;99.90;;;;;;5086512;28;20044;-67
2023/09/06 04:56:27;;;;;;;8.10;5.35;;;11.80;99.90;;;;;;5084513;28;20531;-66
2023/09/06 04:58:59;;;;;;;10.70;5.50;;;11.80;99.90;;;;;;5089245;28;20046;-66
2023/09/06 05:01:31;;;;;;;13.90;5.30;;;11.80;99.90;;;;;;5083498;28;20048;-66
2023/09/06 05:04:03;;;;;;;10.50;6.20;;;11.70;99.90;;;;;;5079415;28;20070;-66
2023/09/06 05:06:30;;;;;;;11.82;6.35;;;11.80;99.90;;;;;;5077975;28;20028;-66
2023/09/06 05:09:02;;;;;;;9.57;6.93;;;11.80;99.90;;;;;;5073847;28;20033;-66
2023/09/06 05:11:34;;;;;;;13.27;7.10;;;11.90;99.90;;;;;;5074491;28;20049;-66
2023/09/06 05:14:01;;;;;;;19.98;7.10;;;11.90;99.90;;;;;;5072678;28;20052;-66
2023/09/06 05:16:33;;;;;;;16.38;6.93;;;11.90;99.90;;;;;;5080281;28;20064;-66
2023/09/06 05:19:06;;;;;;;14.73;7.05;;;11.90;99.90;;;;;;5088124;28;20048;-66
2023/09/06 05:21:39;;;;;;;20.98;9.68;;;11.80;99.90;;;;;;5076289;28;20581;-66
2023/09/06 05:24:07;;;;;;;22.02;8.43;;;11.70;99.90;;;;;;5084813;28;20032;-66
2023/09/06 05:26:39;;;;;;;16.38;8.18;;;11.70;99.90;;;;;;5089200;28;20032;-66
2023/09/06 05:29:11;;;;;;;11.88;7.97;;;11.70;99.90;;;;;;5087825;28;20068;-66
2023/09/06 05:31:44;;;;;;;11.00;7.70;;;11.60;99.90;;;;;;5083081;28;20042;-66
2023/09/06 05:34:11;;;;;;;9.80;8.00;;;11.60;99.90;;;;;;5079203;28;20757;-65
2023/09/06 05:36:43;;;;;;;11.63;7.90;;;11.60;99.90;;;;;;5077570;28;20093;-66
2023/09/06 05:39:15;;;;;;;10.13;7.97;;;11.60;99.90;;;;;;5087729;28;20101;-66
2023/09/06 05:41:48;;;;;;;8.40;6.82;;;11.70;99.90;;;;;;5075518;28;20132;-66
2023/09/06 05:44:19;;;;;;;11.70;7.90;;;11.70;99.90;;;;;;5072688;28;20036;-66
2023/09/06 05:46:51;;;;;;;9.13;7.45;;;11.70;99.90;;;;;;5072174;28;20415;-66
2023/09/06 05:49:24;;;;;;;10.05;8.35;;;11.80;99.90;;;;;;5069078;28;20405;-65
2023/09/06 05:51:56;;;;;;;13.32;8.30;;;11.80;99.90;;;;;;5086317;28;20113;-66
2023/09/06 05:54:28;;;;;;;17.48;8.73;;;11.90;99.90;;;;;;5070714;28;20079;-66
2023/09/06 05:56:55;;;;;;;11.13;8.07;;;11.90;99.90;;;;;;5088029;28;20106;-66
2023/09/06 05:59:23;;;;;;;11.38;7.95;;;12.00;99.90;;;;;;5085798;28;20051;-66
2023/09/06 06:01:55;;;;;;;9.57;7.43;;;12.00;99.90;;;;;;5090281;28;20056;-66
2023/09/06 06:04:26;;;;;;;8.85;7.95;;;12.10;99.90;;;;;;5086346;28;20527;-65
2023/09/06 06:06:58;;;;;;;8.57;7.03;;;12.10;99.90;;;;;;5090009;28;20044;-66
2023/09/06 06:09:30;;;;;;;8.50;5.97;;;12.20;99.90;;;;;;5085225;28;20471;-67
2023/09/06 06:12:03;;;;;;;8.35;6.60;;;12.30;99.90;;;;;;5085880;28;20043;-65
2023/09/06 06:14:36;;;;;;;8.23;6.25;;;12.80;99.90;;;;;;5086661;28;20036;-66
2023/09/06 06:17:11;;;;;;;9.10;6.05;;;13.30;99.90;;;;;;5080570;28;20711;-68
2023/09/06 06:19:44;;;;;;;8.52;6.40;;;13.70;99.90;;;;;;5074059;28;20048;-66
2023/09/06 06:22:16;;;;;;;8.97;6.93;;;14.10;99.90;;;;;;5084398;28;20040;-66
2023/09/06 06:24:48;;;;;;;7.60;6.13;;;14.30;99.90;;;;;;5084020;28;20045;-66
2023/09/06 06:27:19;;;;;;;10.45;7.13;;;14.60;99.90;;;;;;5078719;28;20047;-67
2023/09/06 06:29:51;;;;;;;11.35;7.82;;;14.80;99.90;;;;;;5070710;28;20135;-66
2023/09/06 06:32:19;;;;;;;10.05;8.23;;;15.00;99.90;;;;;;5079009;28;20038;-66
2023/09/06 06:34:49;;;;;;;8.73;7.82;;;15.10;99.90;;;;;;5083350;28;20040;-66
2023/09/06 06:37:21;;;;;;;9.50;7.60;;;15.10;99.90;;;;;;5084818;28;20039;-66
2023/09/06 06:39:54;;;;;;;9.80;6.55;;;15.20;99.90;;;;;;5065990;28;20040;-66
2023/09/06 06:42:29;;;;;;;12.45;7.18;;;15.20;99.90;;;;;;5081115;28;20048;-66
2023/09/06 06:45:04;;;;;;;14.77;7.55;;;15.20;99.90;;;;;;5065673;28;20044;-66
2023/09/06 06:47:36;;;;;;;15.00;7.47;;;15.20;99.90;;;;;;5077370;28;20040;-66
2023/09/06 06:50:09;;;;;;;8.68;7.50;;;15.20;99.90;;;;;;5079554;28;20064;-67
2023/09/06 06:52:44;;;;;;;17.40;8.82;;;15.20;99.90;;;;;;5083378;28;20036;-66
2023/09/06 06:55:10;;;;;;;24.05;8.02;;;15.10;99.90;;;;;;5075203;28;20032;-66
2023/09/06 06:57:42;;;;;;;11.43;7.60;;;15.00;99.90;;;;;;5074730;28;20516;-66
2023/09/06 07:00:11;;;;;;;21.10;7.85;;;15.10;99.90;;;;;;5076228;28;20119;-66
2023/09/06 07:02:45;;;;;;;13.93;8.60;;;15.20;99.90;;;;;;5075474;28;20481;-66
2023/09/06 07:05:17;;;;;;;13.85;8.48;;;15.20;99.90;;;;;;5081599;28;20420;-66
2023/09/06 07:07:48;;;;;;;28.60;10.20;;;15.20;99.90;;;;;;5079153;28;20040;-66
2023/09/06 07:10:15;;;;;;;12.57;8.95;;;15.30;99.90;;;;;;5082703;28;20160;-67
2023/09/06 07:12:42;;;;;;;50.88;37.67;;;15.40;99.90;;;;;;5085992;28;20045;-66
2023/09/06 07:15:10;;;;;;;14.90;12.57;;;15.40;99.90;;;;;;5075124;28;20044;-67
2023/09/06 07:17:42;;;;;;;11.55;10.05;;;15.50;99.90;;;;;;5073896;28;20045;-67
2023/09/06 07:20:16;;;;;;;10.30;9.20;;;15.50;99.90;;;;;;5079543;28;20055;-67
2023/09/06 07:22:43;;;;;;;12.38;9.52;;;15.60;99.90;;;;;;5081679;28;20042;-66
2023/09/06 07:25:13;;;;;;;9.73;8.73;;;15.60;99.90;;;;;;5083103;28;20033;-66
2023/09/06 07:27:40;;;;;;;10.68;9.15;;;15.70;99.90;;;;;;5082736;28;20060;-66
2023/09/06 07:30:12;;;;;;;10.27;8.80;;;15.80;99.90;;;;;;5083760;28;20032;-66
2023/09/06 07:32:45;;;;;;;11.63;8.93;;;15.90;99.90;;;;;;5067185;28;20042;-67
2023/09/06 07:35:16;;;;;;;10.27;9.05;;;16.00;99.90;;;;;;5087581;28;20579;-66
2023/09/06 07:37:43;;;;;;;14.77;9.80;;;16.00;99.90;;;;;;5086794;28;20044;-66
2023/09/06 07:40:15;;;;;;;13.45;9.55;;;16.00;99.90;;;;;;5080534;28;20132;-66
2023/09/06 07:42:47;;;;;;;11.18;8.73;;;15.90;99.90;;;;;;5079691;28;20044;-66
2023/09/06 07:45:14;;;;;;;10.20;8.90;;;15.90;99.90;;;;;;5081261;28;20040;-67
2023/09/06 07:47:46;;;;;;;10.18;9.23;;;16.00;99.90;;;;;;5079319;28;20036;-66
2023/09/06 07:50:13;;;;;;;9.82;8.40;;;16.20;99.90;;;;;;5086739;28;20455;-66
2023/09/06 07:52:45;;;;;;;10.25;8.80;;;16.30;99.90;;;;;;5084225;28;20028;-67
2023/09/06 07:55:17;;;;;;;11.80;9.43;;;16.40;99.90;;;;;;5081985;28;20559;-67
2023/09/06 07:57:49;;;;;;;10.95;9.70;;;16.50;99.90;;;;;;5081774;28;20052;-67
2023/09/06 08:00:23;;;;;;;;;;;16.60;99.90;;;;;;5087410;28;20520;-67
2023/09/06 08:02:50;;;;;;;12.70;9.52;;;16.60;99.90;;;;;;5081849;28;20003;-66
2023/09/06 08:05:22;;;;;;;11.98;8.98;;;16.70;99.90;;;;;;5076992;28;20041;-66
2023/09/06 08:07:54;;;;;;;12.03;9.33;;;16.80;99.90;;;;;;5077597;28;20085;-66
2023/09/06 08:10:27;;;;;;;16.05;9.05;;;16.80;99.90;;;;;;5076101;28;20119;-66
2023/09/06 08:12:59;;;;;;;11.18;9.60;;;16.90;99.90;;;;;;5076829;28;20041;-66
2023/09/06 08:15:33;;;;;;;12.93;10.13;;;17.00;99.90;;;;;;5079200;28;20100;-65
2023/09/06 08:18:05;;;;;;;;;;;17.00;99.90;;;;;;5073842;28;20037;-66
2023/09/06 08:20:37;;;;;;;15.60;9.13;;;17.10;99.90;;;;;;5083438;28;19920;-66
2023/09/06 08:23:09;;;;;;;17.38;9.05;;;17.20;99.90;;;;;;5075717;28;20044;-66
2023/09/06 08:25:40;;;;;;;13.25;8.88;;;17.30;99.90;;;;;;5071843;28;20059;-66
2023/09/06 08:28:15;;;;;;;13.27;8.95;;;17.30;99.90;;;;;;5085614;28;20412;-66
2023/09/06 08:30:47;;;;;;;12.57;8.75;;;17.40;99.90;;;;;;5075475;28;20036;-66
2023/09/06 08:33:19;;;;;;;16.20;8.60;;;17.50;99.90;;;;;;5075273;28;20036;-66
2023/09/06 08:35:51;;;;;;;10.70;9.25;;;17.70;99.90;;;;;;5079863;28;20045;-66
2023/09/06 08:38:18;;;;;;;12.90;9.40;;;17.70;99.90;;;;;;5079980;28;20135;-66
2023/09/06 08:40:50;;;;;;;11.73;9.02;;;17.80;99.90;;;;;;5082895;28;20050;-66
2023/09/06 08:43:27;;;;;;;10.63;8.45;;;17.90;99.90;;;;;;5075526;28;20094;-66
2023/09/06 08:46:02;;;;;;;11.38;9.23;;;18.00;99.90;;;;;;5057618;28;20090;-66
2023/09/06 08:48:36;;;;;;;11.15;8.70;;;18.00;99.90;;;;;;5056904;28;20128;-66
2023/09/06 08:51:11;;;;;;;15.05;8.93;;;18.10;99.90;;;;;;5072692;28;20040;-66
2023/09/06 08:53:43;;;;;;;10.27;8.65;;;18.20;99.90;;;;;;5073542;28;20412;-67
2023/09/06 08:56:15;;;;;;;11.18;8.60;;;18.30;99.90;;;;;;5079388;28;20091;-67
2023/09/06 08:58:42;;;;;;;16.08;9.38;;;18.40;99.90;;;;;;5081405;28;20047;-66
2023/09/06 09:01:15;;;;;;;18.92;10.35;;;18.50;99.90;;;;;;5079120;28;20159;-66
2023/09/06 09:03:47;;;;;;;12.95;9.60;;;18.60;99.90;;;;;;5098334;28;20040;-66
2023/09/06 09:06:20;;;;;;;27.58;19.80;;;18.70;99.90;;;;;;5080780;28;20044;-66
2023/09/06 09:08:52;;;;;;;11.07;9.70;;;18.80;99.90;;;;;;5075296;28;20115;-66
2023/09/06 09:11:24;;;;;;;13.13;9.25;;;18.90;99.90;;;;;;5072551;28;20036;-66
2023/09/06 09:14:00;;;;;;;12.20;8.85;;;19.00;99.90;;;;;;5076073;28;20424;-66
2023/09/06 09:16:32;;;;;;;11.23;9.68;;;19.10;99.90;;;;;;5075406;28;20044;-66
2023/09/06 09:19:04;;;;;;;12.13;9.38;;;19.30;99.90;;;;;;5078845;28;20044;-66
2023/09/06 09:21:40;;;;;;;12.63;9.80;;;19.30;99.90;;;;;;5081468;28;20048;-66
2023/09/06 09:24:12;;;;;;;18.40;9.93;;;19.40;99.90;;;;;;5083958;28;20032;-66
2023/09/06 09:26:44;;;;;;;12.88;9.77;;;19.50;99.90;;;;;;5080772;28;20036;-68
2023/09/06 09:29:12;;;;;;;11.98;9.18;;;19.60;99.90;;;;;;5079425;28;20501;-68
2023/09/06 09:31:44;;;;;;;9.93;8.93;;;19.70;99.90;;;;;;5086453;28;20067;-67
2023/09/06 09:34:18;;;;;;;11.25;9.93;;;19.80;99.90;;;;;;5072507;28;20063;-68
2023/09/06 09:36:51;;;;;;;9.55;8.55;;;20.00;99.90;;;;;;5085985;28;20393;-68
2023/09/06 09:39:27;;;;;;;8.97;8.07;;;20.10;99.90;;;;;;5089639;28;20044;-69
2023/09/06 09:41:58;;;;;;;9.00;7.95;;;20.20;99.90;;;;;;5079345;28;20029;-68
2023/09/06 09:44:30;;;;;;;10.43;9.32;;;20.30;99.90;;;;;;5079449;28;20033;-67
2023/09/06 09:47:08;;;;;;;10.40;9.02;;;20.40;99.90;;;;;;5083255;28;20043;-67
2023/09/06 09:49:41;;;;;;;10.40;9.20;;;20.60;99.90;;;;;;5079497;28;20052;-68
2023/09/06 09:52:14;;;;;;;;;;;20.70;99.90;;;;;;5075976;28;20119;-67
2023/09/06 09:54:47;;;;;;;9.02;7.93;;;20.70;99.90;;;;;;5087816;28;19920;-70
2023/09/06 09:57:16;;;;;;;8.85;7.88;;;20.90;99.90;;;;;;5077127;28;20048;-69
2023/09/06 09:59:50;;;;;;;8.88;7.53;;;21.00;99.90;;;;;;5080151;28;20071;-73
2023/09/06 10:02:23;;;;;;;9.57;7.90;;;21.10;99.90;;;;;;5078962;28;20044;-67
2023/09/06 10:04:57;;;;;;;12.35;8.73;;;21.20;99.90;;;;;;5083390;28;20064;-68
2023/09/06 10:07:32;;;;;;;9.13;8.23;;;21.20;99.90;;;;;;5087673;28;20401;-68
2023/09/06 10:10:05;;;;;;;8.93;7.75;;;21.30;99.90;;;;;;5080550;28;20029;-69
2023/09/06 10:12:49;;;;;;;9.05;8.15;;;21.40;99.90;;;;;;5079100;28;20032;-67
2023/09/06 10:15:23;;;;;;;10.05;7.95;;;21.50;99.90;;;;;;5070325;28;20040;-68
2023/09/06 10:17:54;;;;;;;12.65;8.82;;;21.70;99.90;;;;;;5081945;28;20044;-67
2023/09/06 10:20:23;;;;;;;8.63;7.22;;;21.80;99.90;;;;;;5085515;28;20043;-67
2023/09/06 10:22:56;;;;;;;11.55;7.43;;;21.90;99.90;;;;;;5080994;28;20650;-67
2023/09/06 10:25:30;;;;;;;13.80;7.40;;;21.90;99.90;;;;;;5079042;28;20417;-67
2023/09/06 10:28:03;;;;;;;13.95;8.27;;;22.10;99.90;;;;;;5073986;28;20044;-68
2023/09/06 10:30:34;;;;;;;12.27;7.60;;;22.20;99.90;;;;;;5074449;28;20056;-68
2023/09/06 10:33:08;;;;;;;25.70;9.05;;;22.30;99.90;;;;;;5075135;28;20043;-68
2023/09/06 10:35:41;;;;;;;21.38;8.00;;;22.40;99.90;;;;;;5079609;28;20144;-69
2023/09/06 10:38:11;;;;;;;18.23;8.05;;;22.50;99.90;;;;;;5079431;28;20044;-68
2023/09/06 10:40:53;;;;;;;17.15;8.35;;;22.60;99.90;;;;;;5080889;28;20054;-69
2023/09/06 10:43:28;;;;;;;19.35;9.82;;;22.70;99.90;;;;;;5083604;28;20083;-68
2023/09/06 10:46:09;;;;;;;10.25;7.78;;;22.80;99.90;;;;;;5084699;28;20123;-67
2023/09/06 10:48:41;;;;;;;18.35;9.20;;;22.80;99.90;;;;;;5079456;28;20039;-67
2023/09/06 10:51:14;;;;;;;12.45;8.43;;;22.90;99.90;;;;;;5074889;28;20560;-68
2023/09/06 10:53:47;;;;;;;18.75;8.63;;;23.00;99.90;;;;;;5083120;28;20032;-67
2023/09/06 10:56:29;;;;;;;9.30;7.40;;;23.00;99.90;;;;;;5074673;28;20055;-66
2023/09/06 10:59:04;;;;;;;8.60;7.72;;;23.10;99.90;;;;;;5075845;28;20043;-67
2023/09/06 11:01:36;;;;;;;8.43;7.53;;;23.20;99.90;;;;;;5080803;28;20594;-66
2023/09/06 11:04:14;;;;;;;8.07;7.27;;;23.20;99.90;;;;;;5080290;28;20068;-67
2023/09/06 11:06:52;;;;;;;7.65;6.90;;;23.30;99.90;;;;;;5074638;28;20040;-67
2023/09/06 11:09:18;;;;;;;;;;;23.40;99.90;;;;;;5080674;28;20043;-67
2023/09/06 11:11:52;;;;;;;9.75;7.55;;;23.50;99.90;;;;;;5081079;28;19924;-67
2023/09/06 11:14:29;;;;;;;8.60;7.75;;;23.50;99.90;;;;;;5079362;28;20497;-67
2023/09/06 11:17:02;;;;;;;8.13;7.32;;;23.60;99.90;;;;;;5076378;28;20052;-67
2023/09/06 11:19:36;;;;;;;10.38;7.53;;;23.70;99.90;;;;;;5079105;28;20051;-67
2023/09/06 11:22:10;;;;;;;7.38;6.57;;;23.70;99.90;;;;;;5079056;28;20044;-67
2023/09/06 11:24:38;;;;;;;7.78;6.63;;;23.80;99.90;;;;;;5076992;28;20048;-67
2023/09/06 11:27:17;;;;;;;7.85;6.25;;;23.80;99.90;;;;;;5077193;28;20110;-66
2023/09/06 11:29:57;;;;;;;8.35;7.55;;;23.90;99.90;;;;;;5083239;28;20060;-67
2023/09/06 11:32:30;;;;;;;9.48;6.95;;;24.00;99.90;;;;;;5083684;28;20139;-67
2023/09/06 11:34:57;;;;;;;8.73;6.00;;;24.10;99.90;;;;;;5077648;28;20037;-67
2023/09/06 11:37:30;;;;;;;7.68;6.75;;;24.10;99.90;;;;;;5074699;28;20119;-67
2023/09/06 11:40:12;;;;;;;8.20;5.72;;;24.20;99.90;;;;;;5076544;28;20052;-67
2023/09/06 11:43:10;;;;;;;6.88;6.18;;;24.30;99.90;;;;;;5084793;28;20048;-67
2023/09/06 11:45:44;;;;;;;8.68;5.88;;;24.40;99.90;;;;;;5077043;28;20036;-67
2023/09/06 11:48:19;;;;;;;8.60;6.78;;;24.50;99.90;;;;;;5080442;28;20047;-67
2023/09/06 11:50:58;;;;;;;7.07;6.07;;;24.50;99.90;;;;;;5080941;28;20047;-67
2023/09/06 11:53:32;;;;;;;5.95;5.43;;;24.60;99.90;;;;;;5074109;28;20060;-68
2023/09/06 11:56:07;;;;;;;7.63;5.95;;;24.70;99.90;;;;;;5081532;28;20048;-67
2023/09/06 11:58:46;;;;;;;13.85;7.47;;;24.70;99.90;;;;;;5079874;28;20055;-67
2023/09/06 12:01:24;;;;;;;11.20;6.13;;;24.80;99.90;;;;;;5078185;28;20101;-67
2023/09/06 12:03:58;;;;;;;8.13;5.53;;;24.80;99.90;;;;;;5080722;28;20055;-67
2023/09/06 12:06:27;;;;;;;7.05;5.15;;;24.90;99.90;;;;;;5080050;28;20147;-66
2023/09/06 12:08:59;;;;;;;5.95;4.90;;;24.90;99.90;;;;;;5085247;28;20051;-67
2023/09/06 12:11:32;;;;;;;8.88;5.40;;;25.00;99.90;;;;;;5078646;28;20713;-67
2023/09/06 12:14:04;;;;;;;11.60;5.88;;;25.00;99.90;;;;;;5085511;28;20044;-68
2023/09/06 12:16:32;;;;;;;5.63;4.97;;;25.20;99.90;;;;;;5080962;28;20063;-66
2023/09/06 12:19:00;;;;;;;5.95;5.30;;;25.30;99.90;;;;;;5076436;28;20056;-67
2023/09/06 12:21:32;;;;;;;6.90;5.43;;;25.30;99.90;;;;;;5090443;28;20044;-67
2023/09/06 12:24:04;;;;;;;5.65;4.22;;;25.40;99.90;;;;;;5080269;28;20048;-67
2023/09/06 12:26:36;;;;;;;4.88;4.35;;;25.40;99.90;;;;;;5076696;28;20051;-66
2023/09/06 12:29:08;;;;;;;5.15;4.65;;;25.50;99.90;;;;;;5081842;28;20466;-67
2023/09/06 12:31:36;;;;;;;4.70;3.92;;;25.60;99.90;;;;;;5076630;28;20036;-67
2023/09/06 12:34:08;;;;;;;4.18;3.78;;;25.70;99.90;;;;;;5079849;28;20051;-67
2023/09/06 12:36:41;;;;;;;4.25;3.85;;;25.80;99.90;;;;;;5081005;28;20052;-67
2023/09/06 12:39:12;;;;;;;4.22;3.80;;;25.90;99.90;;;;;;5086194;28;20036;-66
2023/09/06 12:41:44;;;;;;;4.75;4.25;;;26.00;99.90;;;;;;5075700;28;20076;-67
2023/09/06 12:44:17;;;;;;;4.50;4.10;;;26.10;99.90;;;;;;5086202;28;20059;-67
2023/09/06 12:46:49;;;;;;;6.82;4.25;;;26.30;99.90;;;;;;5081074;28;20123;-66
2023/09/06 12:49:21;;;;;;;5.43;3.67;;;26.40;99.90;;;;;;5085115;28;20051;-67
2023/09/06 12:51:48;;;;;;;7.20;3.70;;;26.40;99.90;;;;;;5081422;28;20298;-67
2023/09/06 12:54:20;;;;;;;6.95;4.53;;;26.50;99.90;;;;;;5069059;28;20211;-67
2023/09/06 12:56:52;;;;;;;5.07;4.32;;;26.50;99.90;;;;;;5080001;28;20421;-66
2023/09/06 12:59:25;;;;;;;5.20;3.92;;;26.60;99.90;;;;;;5076214;28;20044;-66
2023/09/06 13:01:57;;;;;;;4.32;3.92;;;26.60;99.90;;;;;;5089008;28;20129;-66
2023/09/06 13:04:24;;;;;;;5.60;4.15;;;26.70;99.90;;;;;;5085464;28;20041;-66
2023/09/06 13:06:58;;;;;;;6.63;4.60;;;26.80;99.90;;;;;;5084906;28;20064;-67
2023/09/06 13:09:30;;;;;;;4.97;4.47;;;26.80;99.90;;;;;;5089108;28;20055;-67